Jonathan Thompson

Olheiro - Millwall
9 Dez 2027
Quinta-feira
Processo

Personalidade

Adaptabilidade (18) Ambição (4) Controvérsia (1) Lealdade (20) Pressão (18) Profissionalismo (20) Espírito Esportivo (13) Temperamento (14)

Perfil

Estilo de Treinamento Democrático
Licença Continental A
Determinação 11
Gestão de Pessoas 6
Motivação 9
Disciplina 10
Satisfação no Trabalho
100%
Fadiga
0%
Função Olheiro
Salário 58.6K p/s
Contrato 14.03.2028

Desempenho

Comportamento Bom
Eficácia do Treinamento
38%
Desenvolvimento do Jogador
45%
Prevenção de Lesões
20%
Implementação Tática
45%

Eventos Recentes

Participou de uma reunião de recrutamento 7d atrás
Participou de uma reunião de recrutamento 14d atrás
Observou uma partida 14d atrás
Participou de uma reunião de recrutamento 21d atrás
Aniversário 21d atrás
Observou uma partida 21d atrás
Participou de uma reunião de recrutamento 28d atrás
Observou uma partida 28d atrás

Monitorando agora

82
Jogador Clube Status Habilidade Confiança Observado Última observação Último voto
Eric Bocat Stoke City Perdido 116 / 118 72% 1 28.06.2027 -
Adam Bakoune Ospitaletto Ativo 102 / 107 40% 1 30.05.2027 -
Dylan Lawlor Cardiff City Ativo 114 / 129 40% 1 30.05.2027 -
Jofre Torrents Ajax Ativo 130 / 128 40% 6 28.05.2027 -
Ibrahim Maza Bayer Leverkusen Ativo 152 / 163 40% 4 28.05.2027 -
Christos Mouzakitis Hull City Ativo 133 / 132 40% 1 28.05.2027 -
Keagan Phiri Platinum Stars Ativo 110 / 114 40% 3 27.05.2027 -
Ernie Weaver AFC Wimbledon Ativo 101 / 109 40% 5 26.05.2027 -
Daniel Dennis Ikorodu City Ativo 86 / 117 40% 1 26.05.2027 -
Million Manhoef Stoke City Ativo 124 / 137 40% 1 24.05.2027 -
Milan van Ewijk Mansfield Town Ativo 123 / 126 40% 1 24.05.2027 -
Mandla Erasmus SuperSport United Ativo 118 / 106 40% 4 20.05.2027 -
Derensili Sanches Fernandes Huddersfield Town Ativo 129 / 140 40% 3 20.05.2027 -
Joel Ezra Enyimba Ativo 92 / 96 40% 1 20.05.2027 -
David Damboama El-Kanemi Warriors Ativo 83 / 84 40% 1 20.05.2027 -
Amine Adli Bournemouth Ativo 148 / 156 40% 1 20.05.2027 -
Kwadwo Baah Watford Ativo 121 / 142 40% 3 19.05.2027 -
Cian Ashford Cardiff City Ativo 120 / 121 40% 1 19.05.2027 -
Jack McGlynn Stoke City Ativo 139 / 139 40% 2 16.05.2027 -
Ali Ahmed Norwich City Ativo 124 / 119 40% 3 16.05.2027 -
Stanley Mills Oxford United Ativo 120 / 131 40% 2 16.05.2027 -
Isaac Price West Bromwich Albion Ativo 131 / 133 40% 1 14.05.2027 -
Zeidane Inoussa Swansea City Ativo 124 / 132 40% 1 14.05.2027 -
Edwin Asamoah Berekum Chelsea Ativo 75 / 95 40% 3 13.05.2027 -
Tom Fellows Southampton Ativo 128 / 144 40% 3 13.05.2027 -
Davide Bartesaghi AC Milan Ativo 131 / 140 40% 2 13.05.2027 -
Ethan Galbraith Swansea City Ativo 137 / 146 40% 1 12.05.2027 -
Tomáš Rigo Stoke City Ativo 137 / 144 40% 1 10.05.2027 -
Sascha Britschgi Padova Ativo 113 / 117 40% 2 09.05.2027 -
Riley Owen Trento Ativo 96 / 104 40% 4 09.05.2027 -
Hlompho Lorch Ajax Cape Town Ativo 104 / 94 40% 3 09.05.2027 -
Kevin Fulham Ativo 149 / 138 40% 2 09.05.2027 -
Percy Jali Free State Stars Ativo 85 / 114 40% 1 07.05.2027 -
Josh Smith Accrington Stanley Ativo 81 / 71 40% 1 07.05.2027 -
Finn Azaz Southampton Ativo 125 / 133 40% 2 06.05.2027 -
Max Bird Birmingham Ativo 128 / 118 40% 3 06.05.2027 -
Romano Schmid Frosinone Ativo 147 / 134 40% 1 06.05.2027 -
Mohamed Belloumi Hull City Ativo 131 / 124 40% 1 05.05.2027 -
Scott Twine Bristol City Ativo 125 / 127 40% 2 04.05.2027 -
Lucas Bergvall Tottenham Perdido 151 / 155 40% 2 29.04.2027 -
Felix Afful Liberty Professionals Ativo 76 / 74 40% 1 29.04.2027 -
Oswin Appollis Orlando Pirates Ativo 114 / 128 40% 2 28.04.2027 -
Welington Southampton Ativo 139 / 119 40% 2 27.04.2027 -
Malick Fofana Sunderland Ativo 143 / 142 40% 1 27.04.2027 -
Jack Diamond Stockport County Ativo 112 / 112 40% 1 27.04.2027 -
Mohamed-Ali Cho Hull City Ativo 128 / 144 40% 1 26.04.2027 -
Christ Inao Oulaï Fiorentina Ativo 139 / 130 40% 4 25.04.2027 -
Keagan Tau Ajax Cape Town Ativo 96 / 88 40% 1 25.04.2027 -
Gonzalo Fulham Ativo 137 / 149 40% 1 23.04.2027 -
Jason Knight Bristol City Ativo 134 / 139 40% 1 23.04.2027 -
Imrân Louza Watford Ativo 131 / 142 40% 1 21.04.2027 -
Bernardo Lima Porto Ativo 96 / 121 40% 2 19.04.2027 -
Jan Bürger Gillingham Ativo 112 / 112 40% 4 19.04.2027 -
Joel McGregor Swindon Town Ativo 85 / 97 40% 1 19.04.2027 -
Matías Gómez Granada Ativo 113 / 119 40% 2 18.04.2027 -
Kasey McAteer Ipswich Town Ativo 134 / 135 40% 1 15.04.2027 -
David Ozoh Derby County Ativo 113 / 123 40% 2 14.04.2027 -
Georginio Rutter Brighton Ativo 139 / 148 40% 1 10.04.2027 -
Isaiah Jones Luton Town Ativo 133 / 126 40% 1 10.04.2027 -
Kazunari Kita Real Sociedad Ativo 92 / 110 40% 2 05.04.2027 -
Rivaldo Grobler Free State Stars Ativo 90 / 127 40% 1 05.04.2027 -
Tshepang Moremi Orlando Pirates Ativo 116 / 130 40% 2 03.04.2027 -
Morgan Whittaker Middlesbrough Ativo 142 / 138 40% 2 02.04.2027 -
David Turnbull Cardiff City Ativo 121 / 113 40% 2 02.04.2027 -
Mpho Khethang AS Police Ativo 86 / 105 40% 2 31.03.2027 -
Joe Gelhardt Hull City Ativo 136 / 125 40% 1 29.03.2027 -
Gonçalo Oliveira Benfica Ativo 103 / 124 40% 1 29.03.2027 -
Richard Koné Queens Park Rangers Ativo 116 / 121 40% 1 26.03.2027 -
Mikey Johnston West Bromwich Albion Ativo 119 / 135 40% 1 26.03.2027 -
Jesús Rodríguez Como Ativo 148 / 137 40% 1 26.03.2027 -
Giorgi Chakvetadze Watford Ativo 137 / 121 40% 1 25.03.2027 -
Zane Albarus Cambridge United Ativo 86 / 94 40% 1 24.03.2027 -
Johan Manzambi Newcastle United Ativo 142 / 147 40% 1 24.03.2027 -
Adrien Truffert Bournemouth Ativo 158 / 136 40% 2 23.03.2027 -
Zeki Amdouni Burnley Ativo 135 / 123 40% 1 23.03.2027 -
Josh King Chelsea Perdido 129 / 149 40% 1 18.03.2027 -
Daniel Costa Sporting CP Ativo 90 / 107 40% 1 18.03.2027 -
Ronwen Phiri Platinum Stars Ativo 97 / 103 40% 1 17.03.2027 -
Cathal Heffernan Harrogate Town Ativo 90 / 89 40% 1 07.03.2027 -
James Dornelly Peterborough United Ativo 110 / 94 40% 1 05.03.2027 -
Martim Cunha Porto Ativo 97 / 114 40% 1 04.03.2027 -
Liam Roberts Mansfield Town Ativo 113 / 123 69% 1 07.01.2027 -